East Hampton, New York
Current Conditions -  °F | °C
As of 1:53 AM on Thursday 23 Oct 2014 (Local Time) from KFOK Reporting Station
Overcast Overcast  
Wind Chill: 54°   Ceiling: 1800
Heat Index: 54°   Visibility: 10mi
Dew Point: 48°   Wind: 24mph
Humidity: 80%   Direction: 20°NNE
Pressure: 29.65"   Gusts: 37mph
Location:  40.96°N, 72.18°W
Report Text: KFOK 230553Z AUTO 02021G32KT 10SM OVC018 12/09 A2965 RMK AO2 PK WND 01036/0501 SLP040 60064 T01220089 10128 20111 56006 TSNO
Loading
Personal Weather Stations






























Interactive Weather Map
Tropical Storm Tracking
New forecast layout! Learn more

10-Day Weather Forecast

Advertisements
Track Severe Weather on mobile